Hattiesburg Laurel Regional Airport
KPIB : now visible

Airfield :











YOU CAN JOIN US ON...

 
LOGIN :

Register | Disclaimer

   EN    FR    IT 

 









Legend :    VFR   Marginal VFR   IFR   Intensive IFR   Very Intensive IFR
Visi :
Ceiling :
>= 8 km
>= 3000ft
5 to 8 km
1000 to 3000 ft
1500m to 5 km
500 to 1000 ft
800 to 1500m
200 to 500 ft
< 800m
< 200 ft
Symbols :   Thunderstorms  Fog  Heavy snow  Heavy precipitations  Wind > 20 kt






- Airport Elevation : 298 ft
- IATA code : PIB


KPIB - Hattiesburg Laurel Regional

CURRENT METAR :
  • 300056Z AUTO 30012G18KT 6SM BR BKN009 OVC019 12/12 A2987 RMK AO2 RAE42 CIG 006V013 SLP113 P0001 T01220117

EXPIRED METARs :
  • 300025Z AUTO 31010G19KT 4SM -RA BR OVC007 13/13 A2985 RMK AO2 CIG 004V010 P0001
  • 300006Z AUTO 31013G19KT 3SM -RA BR OVC005 14/13 A2984 RMK AO2 CIG 004V009 P0001
  • 292356Z AUTO 32011G17KT 280V350 2 1/2SM RA BR OVC005 16/16 A2983 RMK AO2 RAB23 PRESRR SLP100 P0003 60136 T01560156 10156 20133 53010
  • 292256Z AUTO 00000KT 10SM OVC005 16/16 A2977 RMK AO2 RAE2157 SLP080 T01560156

TAF KPIB
Valid from the 30 at 00:00 until the 01 at 00:00 UTC


292344Z 3000/3024 00000KT P6SM OVC005
FM300200 32012G20KT P6SM SCT009 OVC015
FM301700 32014G20KT P6SM SKC
KZHU FIR / North America



MET'MAP, your aeronautical weather chart ! - Copyright ORBIFLY December 2007 - Disclaimer

ORBIFLY MET'MAP TEAM :

Programming & Development : Alexandra Zaïnal
Concept & original design : Baudouin d'Aumeries
Assistance for programming : Marc-Olivier Méhu
Technical & hardware support : Manuel Goepfert

Contact : metmap@orbifly.com




SOURCES & CREDITS :

   NOAA       Earth
Advisory